KFOK/FOK METAR and TAF weather

Enter ICAO airport designator
Station Type Date Time Source
KFOK METAR 2018/12/19 08:53 UTC NOAA

KFOK 190853Z AUTO 23003KT 10SM CLR M07/M12 A3015 RMK AO2 SLP209 T10721122 51008 $


Station Type Date Time Source
KFOK Decoded METAR 2018/12/19 08:53 UTC NOAA

THE GABRESKI AIRPORT, NY, United States (KFOK) 40-51N 072-37W 33M
Dec 19, 2018 - 03:53 AM EST / 2018.12.19 0853 UTC
Wind: from the SW (230 degrees) at 3 MPH (3 KT):0
Visibility: 10 mile(s):0
Sky conditions: clear
Temperature: 19.0 F (-7.2 C)
Dew Point: 10.0 F (-12.2 C)
Relative Humidity: 67%
Pressure (altimeter): 30.15 in. Hg (1020 hPa)
Pressure tendency: 0.02 inches (0.8 hPa) higher than three hours ago
ob: KFOK 190853Z AUTO 23003KT 10SM CLR M07/M12 A3015 RMK AO2 SLP209 T10721122 51008
cycle: 9

Station Type Date Time Source
KFOK TAF UTC NOAA

Error!


Example: see airport list